Time,TemperatureF,DewpointF,PressureIn,WindDirection,WindDirectionDegrees,WindSpeedMPH,WindSpeedGustMPH,Humidity,HourlyPrecipIn,Conditions,Clouds,dailyrainin,SolarRadiationWatts/m^2,SoftwareType,DateUTC
2013-07-23 00:01:00,57.0,49.0,-100.00,ESE,115,7.0,15.0,75,0.00,,,0.27,0.000000,,2013-07-23 06:01:00,
2013-07-23 00:11:00,57.0,49.0,-100.00,ESE,115,7.0,15.0,75,0.00,,,0.27,0.000000,,2013-07-23 06:11:00,
2013-07-23 00:22:00,57.0,49.0,-100.00,ESE,115,7.0,15.0,75,0.00,,,0.27,0.000000,,2013-07-23 06:22:00,
2013-07-23 00:33:00,57.0,49.0,-100.00,ESE,115,7.0,15.0,75,0.00,,,0.27,0.000000,,2013-07-23 06:33:00,
2013-07-23 01:01:00,58.0,47.0,-100.00,ENE,76,2.0,11.0,68,0.00,,,0.27,0.000000,,2013-07-23 07:01:00,
2013-07-23 01:12:00,58.0,47.0,-100.00,ENE,76,2.0,11.0,68,0.00,,,0.27,0.000000,,2013-07-23 07:12:00,
2013-07-23 01:22:00,58.0,47.0,-100.00,ENE,76,2.0,11.0,68,0.00,,,0.27,0.000000,,2013-07-23 07:22:00,
2013-07-23 01:33:00,58.0,47.0,-100.00,ENE,76,2.0,11.0,68,0.00,,,0.27,0.000000,,2013-07-23 07:33:00,
2013-07-23 02:01:00,57.0,48.0,-100.00,NNE,30,1.0,6.0,72,0.00,,,0.27,0.000000,,2013-07-23 08:01:00,
2013-07-23 02:11:00,57.0,48.0,-100.00,NNE,30,1.0,6.0,72,0.00,,,0.27,0.000000,,2013-07-23 08:11:00,
2013-07-23 02:21:00,57.0,48.0,-100.00,NNE,30,1.0,6.0,72,0.00,,,0.27,0.000000,,2013-07-23 08:21:00,
2013-07-23 02:33:00,57.0,48.0,-100.00,NNE,30,1.0,6.0,72,0.00,,,0.27,0.000000,,2013-07-23 08:33:00,
2013-07-23 03:01:00,53.0,49.0,-100.00,NE,37,1.0,5.0,85,0.00,,,0.27,0.000000,,2013-07-23 09:01:00,
2013-07-23 03:11:00,53.0,49.0,-100.00,NE,37,1.0,5.0,85,0.00,,,0.27,0.000000,,2013-07-23 09:11:00,
2013-07-23 03:22:00,53.0,49.0,-100.00,NE,37,1.0,5.0,85,0.00,,,0.27,0.000000,,2013-07-23 09:22:00,
2013-07-23 03:33:00,53.0,49.0,-100.00,NE,37,1.0,5.0,85,0.00,,,0.27,0.000000,,2013-07-23 09:33:00,
2013-07-23 04:02:00,49.0,46.0,-100.00,NW,315,1.0,3.0,91,0.00,,,0.27,0.000000,,2013-07-23 10:02:00,
2013-07-23 04:11:00,49.0,46.0,-100.00,NW,315,1.0,3.0,91,0.00,,,0.27,0.000000,,2013-07-23 10:11:00,
2013-07-23 04:22:00,49.0,46.0,-100.00,NW,315,1.0,3.0,91,0.00,,,0.27,0.000000,,2013-07-23 10:22:00,
2013-07-23 04:32:00,49.0,46.0,-100.00,NW,315,1.0,3.0,91,0.00,,,0.27,0.000000,,2013-07-23 10:32:00,
2013-07-23 05:02:00,53.0,49.0,-100.00,South,169,0.0,5.0,85,0.00,,,0.27,0.000000,,2013-07-23 11:02:00,
2013-07-23 05:12:00,53.0,49.0,-100.00,South,169,0.0,5.0,85,0.00,,,0.27,0.000000,,2013-07-23 11:12:00,
2013-07-23 05:22:00,53.0,49.0,-100.00,South,169,0.0,5.0,85,0.00,,,0.27,0.000000,,2013-07-23 11:22:00,
2013-07-23 05:32:00,53.0,49.0,-100.00,South,169,0.0,5.0,85,0.00,,,0.27,0.000000,,2013-07-23 11:32:00,
2013-07-23 06:02:00,55.0,50.0,-100.00,South,175,2.0,6.0,83,0.00,,,0.27,1.000000,,2013-07-23 12:02:00,
2013-07-23 06:11:00,55.0,50.0,-100.00,South,175,2.0,6.0,83,0.00,,,0.27,1.000000,,2013-07-23 12:11:00,
2013-07-23 06:22:00,55.0,50.0,-100.00,South,175,2.0,6.0,83,0.00,,,0.27,1.000000,,2013-07-23 12:22:00,
2013-07-23 06:33:00,55.0,50.0,-100.00,South,175,2.0,6.0,83,0.00,,,0.27,1.000000,,2013-07-23 12:33:00,
2013-07-23 07:01:00,56.0,51.0,-100.00,South,176,4.0,8.0,82,0.00,,,0.27,17.000000,,2013-07-23 13:01:00,
2013-07-23 07:11:00,56.0,51.0,-100.00,South,176,4.0,8.0,82,0.00,,,0.27,17.000000,,2013-07-23 13:11:00,
2013-07-23 07:22:00,56.0,51.0,-100.00,South,176,4.0,8.0,82,0.00,,,0.27,17.000000,,2013-07-23 13:22:00,
2013-07-23 07:32:00,56.0,51.0,-100.00,South,176,4.0,8.0,82,0.00,,,0.27,17.000000,,2013-07-23 13:32:00,
2013-07-23 08:02:00,59.0,53.0,-100.00,SSW,192,4.0,8.0,80,0.00,,,0.27,41.000000,,2013-07-23 14:02:00,
2013-07-23 08:12:00,59.0,53.0,-100.00,SSW,192,4.0,8.0,80,0.00,,,0.27,41.000000,,2013-07-23 14:12:00,
2013-07-23 08:22:00,59.0,53.0,-100.00,SSW,192,4.0,8.0,80,0.00,,,0.27,41.000000,,2013-07-23 14:22:00,
2013-07-23 08:32:00,59.0,53.0,-100.00,SSW,192,4.0,8.0,80,0.00,,,0.27,41.000000,,2013-07-23 14:32:00,
2013-07-23 09:03:00,63.0,55.0,-100.00,SSW,208,4.0,10.0,74,0.00,,,0.27,107.000000,,2013-07-23 15:03:00,
2013-07-23 09:11:00,63.0,55.0,-100.00,SSW,208,4.0,10.0,74,0.00,,,0.27,107.000000,,2013-07-23 15:11:00,
2013-07-23 09:24:00,63.0,55.0,-100.00,SSW,208,4.0,10.0,74,0.00,,,0.27,107.000000,,2013-07-23 15:24:00,
2013-07-23 09:32:00,63.0,55.0,-100.00,SSW,208,4.0,10.0,74,0.00,,,0.27,107.000000,,2013-07-23 15:32:00,
2013-07-23 10:01:00,64.0,54.0,-100.00,South,189,5.0,9.0,71,0.00,,,0.27,495.000000,,2013-07-23 16:01:00,
2013-07-23 10:12:00,64.0,54.0,-100.00,South,189,5.0,9.0,71,0.00,,,0.27,495.000000,,2013-07-23 16:12:00,
2013-07-23 10:22:00,64.0,54.0,-100.00,South,189,5.0,9.0,71,0.00,,,0.27,495.000000,,2013-07-23 16:22:00,
2013-07-23 10:33:00,64.0,54.0,-100.00,South,189,5.0,9.0,71,0.00,,,0.27,495.000000,,2013-07-23 16:33:00,
2013-07-23 11:02:00,66.0,55.0,-100.00,South,176,3.0,10.0,68,0.00,,,0.27,543.000000,,2013-07-23 17:02:00,
2013-07-23 11:11:00,66.0,55.0,-100.00,South,176,3.0,10.0,68,0.00,,,0.27,543.000000,,2013-07-23 17:11:00,
2013-07-23 11:21:00,66.0,55.0,-100.00,South,176,3.0,10.0,68,0.00,,,0.27,543.000000,,2013-07-23 17:21:00,
2013-07-23 11:32:00,66.0,55.0,-100.00,South,176,3.0,10.0,68,0.00,,,0.27,543.000000,,2013-07-23 17:32:00,
2013-07-23 12:03:00,69.0,55.0,-100.00,WSW,243,3.0,8.0,62,0.00,,,0.27,716.000000,,2013-07-23 18:03:00,
2013-07-23 12:12:00,69.0,55.0,-100.00,WSW,243,3.0,8.0,62,0.00,,,0.27,716.000000,,2013-07-23 18:12:00,
2013-07-23 12:24:00,69.0,55.0,-100.00,WSW,243,3.0,8.0,62,0.00,,,0.27,716.000000,,2013-07-23 18:24:00,
2013-07-23 12:33:00,69.0,55.0,-100.00,WSW,243,3.0,8.0,62,0.00,,,0.27,716.000000,,2013-07-23 18:33:00,
2013-07-23 13:03:00,73.0,56.0,-100.00,WSW,248,4.0,8.0,55,0.00,,,0.27,951.000000,,2013-07-23 19:03:00,
2013-07-23 13:15:00,73.0,56.0,-100.00,WSW,248,4.0,8.0,55,0.00,,,0.27,951.000000,,2013-07-23 19:15:00,
2013-07-23 13:25:00,73.0,56.0,-100.00,WSW,248,4.0,8.0,55,0.00,,,0.27,951.000000,,2013-07-23 19:25:00,
2013-07-23 13:33:00,73.0,56.0,-100.00,WSW,248,4.0,8.0,55,0.00,,,0.27,951.000000,,2013-07-23 19:33:00,
2013-07-23 14:13:00,75.0,50.0,-100.00,West,270,4.0,10.0,42,0.00,,,0.27,893.000000,,2013-07-23 20:13:00,
2013-07-23 14:34:00,75.0,50.0,-100.00,West,270,4.0,10.0,42,0.00,,,0.27,893.000000,,2013-07-23 20:34:00,
2013-07-23 15:04:00,76.0,46.0,-100.00,West,280,5.0,13.0,35,0.00,,,0.27,928.000000,,2013-07-23 21:04:00,
2013-07-23 15:13:00,76.0,46.0,-100.00,West,280,5.0,13.0,35,0.00,,,0.27,928.000000,,2013-07-23 21:13:00,
2013-07-23 15:23:00,76.0,46.0,-100.00,West,280,5.0,13.0,35,0.00,,,0.27,928.000000,,2013-07-23 21:23:00,
2013-07-23 15:35:00,76.0,46.0,-100.00,West,280,5.0,13.0,35,0.00,,,0.27,928.000000,,2013-07-23 21:35:00,
2013-07-23 16:05:00,74.0,52.0,-100.00,NNE,25,3.0,16.0,46,0.00,,,0.27,779.000000,,2013-07-23 22:05:00,
2013-07-23 16:23:00,74.0,52.0,-100.00,NNE,25,3.0,16.0,46,0.00,,,0.27,779.000000,,2013-07-23 22:23:00,
2013-07-23 16:34:00,74.0,52.0,-100.00,NNE,25,3.0,16.0,46,0.00,,,0.27,779.000000,,2013-07-23 22:34:00,
2013-07-23 17:05:00,71.0,56.0,-100.00,ENE,69,5.0,14.0,60,0.00,,,0.27,231.000000,,2013-07-23 23:05:00,
2013-07-23 17:12:00,71.0,56.0,-100.00,ENE,69,5.0,14.0,60,0.00,,,0.27,231.000000,,2013-07-23 23:12:00,
2013-07-23 17:24:00,71.0,56.0,-100.00,ENE,69,5.0,14.0,60,0.00,,,0.27,231.000000,,2013-07-23 23:24:00,
2013-07-23 17:35:00,71.0,56.0,-100.00,ENE,69,5.0,14.0,60,0.00,,,0.27,231.000000,,2013-07-23 23:35:00,
2013-07-23 18:07:00,69.0,55.0,-100.00,NE,43,3.0,12.0,60,0.00,,,0.27,273.000000,,2013-07-24 00:07:00,
2013-07-23 18:13:00,69.0,55.0,-100.00,NE,43,3.0,12.0,60,0.00,,,0.27,273.000000,,2013-07-24 00:13:00,
2013-07-23 18:26:00,69.0,55.0,-100.00,NE,43,3.0,12.0,60,0.00,,,0.27,273.000000,,2013-07-24 00:26:00,
2013-07-23 18:34:00,69.0,55.0,-100.00,NE,43,3.0,12.0,60,0.00,,,0.27,273.000000,,2013-07-24 00:34:00,
2013-07-23 19:04:00,70.0,55.0,-100.00,NNE,15,2.0,9.0,59,0.00,,,-99.99,221.000000,,2013-07-24 01:04:00,
2013-07-23 19:24:00,70.0,55.0,-100.00,NNE,15,2.0,9.0,59,0.00,,,-99.99,221.000000,,2013-07-24 01:24:00,
2013-07-23 19:33:00,70.0,55.0,-100.00,NNE,15,2.0,9.0,59,0.00,,,-99.99,221.000000,,2013-07-24 01:33:00,
2013-07-23 19:36:00,68.0,55.0,-100.00,NNE,25,1.0,6.0,63,0.00,,,0.21,124.000000,,2013-07-24 01:36:00,
2013-07-23 20:04:00,68.0,55.0,-100.00,NNE,25,1.0,6.0,63,0.00,,,0.21,124.000000,,2013-07-24 02:04:00,
2013-07-23 20:25:00,68.0,55.0,-100.00,NNE,25,1.0,6.0,63,0.00,,,0.21,124.000000,,2013-07-24 02:25:00,
2013-07-23 20:36:00,61.0,54.0,-100.00,NNE,21,0.0,4.0,78,0.00,,,0.00,15.000000,,2013-07-24 02:36:00,
2013-07-23 21:13:00,61.0,54.0,-100.00,NNE,21,0.0,4.0,78,0.00,,,0.00,15.000000,,2013-07-24 03:13:00,
2013-07-23 21:23:00,61.0,54.0,-100.00,NNE,21,0.0,4.0,78,0.00,,,0.00,15.000000,,2013-07-24 03:23:00,
2013-07-23 22:01:00,54.0,51.0,-100.00,NNE,13,2.0,4.0,91,0.00,,,0.00,1.000000,,2013-07-24 04:01:00,
2013-07-23 22:11:00,54.0,51.0,-100.00,NNE,13,2.0,4.0,91,0.00,,,0.00,1.000000,,2013-07-24 04:11:00,
2013-07-23 22:22:00,54.0,51.0,-100.00,NNE,13,2.0,4.0,91,0.00,,,0.00,1.000000,,2013-07-24 04:22:00,
2013-07-23 22:32:00,54.0,51.0,-100.00,NNE,13,2.0,4.0,91,0.00,,,0.00,1.000000,,2013-07-24 04:32:00,
2013-07-23 23:02:00,50.0,48.0,-100.00,NNE,18,2.0,3.0,92,0.00,,,0.00,0.000000,,2013-07-24 05:02:00,
2013-07-23 23:11:00,50.0,48.0,-100.00,NNE,18,2.0,3.0,92,0.00,,,0.00,0.000000,,2013-07-24 05:11:00,
2013-07-23 23:22:00,50.0,48.0,-100.00,NNE,18,2.0,3.0,92,0.00,,,0.00,0.000000,,2013-07-24 05:22:00,
2013-07-23 23:32:00,50.0,48.0,-100.00,NNE,18,2.0,3.0,92,0.00,,,0.00,0.000000,,2013-07-24 05:32:00,